createdAt,value
2022-12-24T05:00:43.216Z,14.80
2022-12-24T05:15:47.705Z,14.70
2022-12-24T05:30:52.300Z,14.90
2022-12-24T05:46:00.582Z,15.00
2022-12-24T06:01:06.362Z,15.10
2022-12-24T06:16:12.666Z,15.10
2022-12-24T06:31:20.041Z,15.00
2022-12-24T06:46:24.620Z,14.80
2022-12-24T07:01:29.278Z,14.80
2022-12-24T07:16:33.994Z,14.70
2022-12-24T07:31:38.582Z,14.50
2022-12-24T07:46:43.175Z,14.60
2022-12-24T08:01:48.019Z,14.70
2022-12-24T08:16:52.640Z,14.90
2022-12-24T08:31:58.290Z,14.70
2022-12-24T08:47:02.782Z,15.00
2022-12-24T09:02:07.652Z,15.00
2022-12-24T09:17:12.694Z,14.80
2022-12-24T09:32:17.236Z,14.60
2022-12-24T09:47:27.477Z,14.90
2022-12-24T10:02:34.027Z,14.80
2022-12-24T10:17:53.874Z,14.80
2022-12-24T10:32:58.401Z,14.60
2022-12-24T10:48:08.865Z,14.90
2022-12-24T11:03:25.388Z,14.90
2022-12-24T11:18:30.199Z,15.00
2022-12-24T11:33:47.486Z,14.90
2022-12-24T11:49:08.335Z,14.80
2022-12-24T12:04:18.250Z,15.20
2022-12-24T12:19:24.065Z,15.10
2022-12-24T12:34:33.589Z,15.20
2022-12-24T12:49:51.724Z,15.10
2022-12-24T13:05:20.904Z,15.20
2022-12-24T13:20:29.650Z,15.20
2022-12-24T13:35:38.435Z,15.20
2022-12-24T13:50:46.166Z,15.10
2022-12-24T14:05:53.494Z,15.20
2022-12-24T14:20:59.926Z,15.10
2022-12-24T14:36:04.735Z,15.20
2022-12-24T14:51:19.377Z,15.50
2022-12-24T15:06:23.822Z,15.30
2022-12-24T15:21:31.908Z,15.70
2022-12-24T15:36:38.527Z,15.50
2022-12-24T15:51:43.042Z,15.50
2022-12-24T16:07:01.899Z,15.80
2022-12-24T16:22:30.746Z,15.80
2022-12-24T16:37:35.284Z,15.70
2022-12-24T16:52:39.703Z,15.90
2022-12-24T17:07:44.559Z,15.60
2022-12-24T17:22:49.145Z,15.70
2022-12-24T17:37:53.563Z,15.80
2022-12-24T17:52:58.166Z,15.80
2022-12-24T18:08:02.588Z,15.70
2022-12-24T18:23:07.270Z,15.80
2022-12-24T18:38:11.771Z,15.80
2022-12-24T18:53:16.345Z,15.70
2022-12-24T19:08:55.913Z,15.80
2022-12-24T19:23:46.034Z,15.90
2022-12-24T19:38:50.884Z,15.90
2022-12-24T19:53:56.658Z,15.90
2022-12-24T20:09:03.115Z,15.80
2022-12-24T20:24:08.248Z,15.80
2022-12-24T20:39:13.888Z,15.70
2022-12-24T20:54:18.588Z,15.70
2022-12-24T21:09:22.988Z,15.60
2022-12-24T21:24:27.447Z,15.70
2022-12-24T21:39:32.093Z,15.60
2022-12-24T21:54:36.518Z,15.60
